Time;durP1;ratioP1;P1;durP2;ratioP2;P2;SDS_P1;SDS_P2;PMS_P1;PMS_P2;Temp;Humidity;BMP_temperature;BMP_pressure;BME280_temperature;BME280_humidity;BME280_pressure;Samples;Min_cycle;Max_cycle;Signal;HPM_P1;HPM_P2
2021/09/05 00:01:44;;;;;;;;;;;;;;;20.89;58.42;100949.47;4885463;29;782;-45
2021/09/05 00:04:10;;;;;;;;;;;;;;;20.99;57.69;100948.50;4884737;29;746;-44
2021/09/05 00:06:35;;;;;;;;;;;;;;;20.62;56.37;100950.09;4885150;29;797;-47
2021/09/05 00:09:01;;;;;;;;;;;;;;;20.07;54.10;100940.25;4884761;29;853;-44
2021/09/05 00:11:26;;;;;;;;;;;;;;;19.38;51.48;100934.84;4884360;29;1903;-45
2021/09/05 00:13:52;;;;;;;;;;;;;;;18.80;49.75;100939.09;4884680;29;987;-46
2021/09/05 00:16:17;;;;;;;;;;;;;;;18.56;47.78;100935.34;4884925;29;1001;-47
2021/09/05 00:18:43;;;;;;;;;;;;;;;18.73;48.99;100930.31;4884909;29;808;-44
2021/09/05 00:21:08;;;;;;;;;;;;;;;19.05;52.65;100930.97;4884682;29;801;-47
2021/09/05 00:23:33;;;;;;;;;;;;;;;19.41;54.51;100937.00;4884959;29;556;-46
2021/09/05 00:25:59;;;;;;;;;;;;;;;19.63;56.55;100942.06;4884613;29;776;-47
2021/09/05 00:28:24;;;;;;;;;;;;;;;20.04;57.09;100937.28;4884299;29;963;-45
2021/09/05 00:30:50;;;;;;;;;;;;;;;20.40;57.09;100929.38;4884807;29;832;-44
2021/09/05 00:33:15;;;;;;;;;;;;;;;20.60;57.68;100933.00;4883815;29;2144;-45
2021/09/05 00:35:41;;;;;;;;;;;;;;;20.70;58.04;100932.88;4884578;29;790;-45
2021/09/05 00:38:07;;;;;;;;;;;;;;;20.84;57.93;100936.53;4884428;29;884;-44
2021/09/05 00:40:32;;;;;;;;;;;;;;;20.73;58.66;100934.22;4884084;29;853;-45
2021/09/05 00:42:58;;;;;;;;;;;;;;;21.16;57.47;100937.72;4884441;29;830;-44
2021/09/05 00:45:23;;;;;;;;;;;;;;;21.39;57.06;100932.34;4883982;29;967;-46
2021/09/05 00:47:49;;;;;;;;;;;;;;;21.29;57.52;100935.31;4898371;29;1118;-49
2021/09/05 00:50:15;;;;;;;;;;;;;;;21.10;57.90;100938.94;4884447;29;788;-47
2021/09/05 00:52:40;;;;;;;;;;;;;;;20.80;56.85;100938.28;4884402;29;1911;-45
2021/09/05 00:55:06;;;;;;;;;;;;;;;20.14;54.37;100937.97;4882431;29;990;-47
2021/09/05 00:57:32;;;;;;;;;;;;;;;19.67;51.93;100928.53;4884128;29;750;-46
2021/09/05 00:59:59;;;;;;;;;;;;;;;19.10;50.34;100925.41;4883752;29;1555;-44
2021/09/05 01:02:25;;;;;;;;;;;;;;;18.85;47.85;100929.16;4883713;29;746;-44
2021/09/05 01:04:51;;;;;;;;;;;;;;;18.52;47.44;100923.25;4884082;29;789;-46
2021/09/05 01:07:17;;;;;;;;;;;;;;;18.83;50.80;100928.59;4884555;29;734;-45
2021/09/05 01:09:43;;;;;;;;;;;;;;;19.22;53.40;100933.31;4883394;29;828;-44
2021/09/05 01:12:09;;;;;;;;;;;;;;;19.58;55.26;100933.81;4882832;29;1914;-45
2021/09/05 01:14:36;;;;;;;;;;;;;;;20.00;55.85;100934.28;4883559;29;962;-44
2021/09/05 01:17:03;;;;;;;;;;;;;;;20.36;56.42;100936.63;4883420;29;1266;-46
2021/09/05 01:19:35;;;;;;;;;;;;;;;20.32;57.61;100943.84;4883722;29;642;-46
2021/09/05 01:22:19;;;;;;;;;;;;;;;20.43;58.14;100948.13;4883718;29;639;-46
2021/09/05 01:25:19;;;;;;;;;;;;;;;20.57;58.65;100942.69;4844034;29;1127;-44
2021/09/05 01:27:51;;;;;;;;;;;;;;;20.80;58.37;100946.56;4877288;29;940;-46
2021/09/05 01:30:44;;;;;;;;;;;;;;;21.22;57.38;100949.50;4897938;29;1190;-45
2021/09/05 01:33:28;;;;;;;;;;;;;;;21.05;58.17;100944.53;4898113;29;1922;-46
2021/09/05 01:36:33;;;;;;;;;;;;;;;20.90;58.27;100944.75;4883505;29;957;-47
2021/09/05 01:39:33;;;;;;;;;;;;;;;20.10;56.01;100952.66;4843808;29;1088;-44
2021/09/05 01:42:19;;;;;;;;;;;;;;;19.45;52.48;100945.53;4845136;29;1052;-45
2021/09/05 01:45:03;;;;;;;;;;;;;;;19.02;49.48;100940.63;4883229;29;955;-47
2021/09/05 01:47:52;;;;;;;;;;;;;;;18.39;48.05;100941.22;4874258;29;1278;-47
2021/09/05 01:50:38;;;;;;;;;;;;;;;18.66;49.10;100940.81;4882524;29;1238;-46
2021/09/05 01:53:22;;;;;;;;;;;;;;;19.21;52.27;100945.44;4882946;29;1911;-46
2021/09/05 01:56:29;;;;;;;;;;;;;;;19.49;55.33;100949.38;4862521;29;1160;-44
2021/09/05 01:59:13;;;;;;;;;;;;;;;19.82;56.65;100938.59;4862225;29;968;-49
2021/09/05 02:02:01;;;;;;;;;;;;;;;20.22;57.00;100943.97;4877718;29;1181;-46
2021/09/05 02:04:46;;;;;;;;;;;;;;;20.38;57.97;100952.88;4882606;29;1284;-48
2021/09/05 02:07:38;;;;;;;;;;;;;;;20.69;57.88;100956.09;4868047;29;1185;-45
2021/09/05 02:10:26;;;;;;;;;;;;;;;20.73;58.21;100959.09;4897465;29;1117;-47
2021/09/05 02:13:07;;;;;;;;;;;;;;;20.85;58.26;100957.53;4896492;29;1985;-46
2021/09/05 02:16:08;;;;;;;;;;;;;;;21.10;57.86;100952.75;4843138;29;1131;-45
2021/09/05 02:19:01;;;;;;;;;;;;;;;21.31;57.41;100950.47;4867469;29;941;-45
2021/09/05 02:21:45;;;;;;;;;;;;;;;21.22;57.57;100955.03;4882938;29;663;-47
2021/09/05 02:24:30;;;;;;;;;;;;;;;21.03;57.31;100949.53;4875548;29;1060;-46
2021/09/05 02:27:19;;;;;;;;;;;;;;;20.08;55.03;100949.38;4882916;29;1016;-47
2021/09/05 02:29:44;;;;;;;;;;;;;;;19.53;52.12;100952.34;4882418;29;975;-45
2021/09/05 02:32:42;;;;;;;;;;;;;;;19.30;48.72;100952.81;4851154;29;1907;-45
2021/09/05 02:35:30;;;;;;;;;;;;;;;18.83;47.48;100950.63;4897307;29;985;-48
2021/09/05 02:38:13;;;;;;;;;;;;;;;18.62;49.75;100947.97;4882370;29;620;-45
2021/09/05 02:41:11;;;;;;;;;;;;;;;19.18;53.20;100955.13;4860838;29;1206;-44
2021/09/05 02:44:09;;;;;;;;;;;;;;;19.65;55.07;100952.81;4860776;29;1091;-45
2021/09/05 02:47:01;;;;;;;;;;;;;;;19.90;57.11;100942.66;4867163;29;1012;-44
2021/09/05 02:49:45;;;;;;;;;;;;;;;20.20;57.40;100954.47;4882246;29;631;-47
2021/09/05 02:52:33;;;;;;;;;;;;;;;20.57;57.39;100955.69;4896549;29;1978;-47
2021/09/05 02:55:21;;;;;;;;;;;;;;;20.54;58.26;100959.03;4863726;29;1091;-47
2021/09/05 02:58:11;;;;;;;;;;;;;;;20.79;58.10;100955.13;4896966;29;1213;-46
2021/09/05 03:00:55;;;;;;;;;;;;;;;21.14;57.57;100964.00;4896459;29;1246;-45
2021/09/05 03:03:47;;;;;;;;;;;;;;;20.91;58.25;100957.47;4881046;29;981;-47
2021/09/05 03:06:33;;;;;;;;;;;;;;;20.97;58.44;100957.09;4882103;29;1077;-45
2021/09/05 03:09:30;;;;;;;;;;;;;;;21.23;57.22;100962.22;4870649;29;1210;-45
2021/09/05 03:12:25;;;;;;;;;;;;;;;20.66;56.51;100970.47;4873605;29;1907;-45
2021/09/05 03:15:11;;;;;;;;;;;;;;;19.96;54.14;100952.53;4877786;29;1141;-45
2021/09/05 03:18:08;;;;;;;;;;;;;;;19.27;50.87;100961.66;4881970;29;1125;-45
2021/09/05 03:20:52;;;;;;;;;;;;;;;18.86;48.27;100955.56;4881816;29;667;-46
2021/09/05 03:23:51;;;;;;;;;;;;;;;18.38;48.16;100965.16;4881105;29;1131;-47
2021/09/05 03:26:39;;;;;;;;;;;;;;;18.85;50.70;100959.44;4885031;29;1245;-45
2021/09/05 03:29:32;;;;;;;;;;;;;;;19.25;54.03;100971.31;4899647;29;1394;-46
2021/09/05 03:32:27;;;;;;;;;;;;;;;19.56;56.25;100968.31;4881052;29;1970;-45
2021/09/05 03:35:21;;;;;;;;;;;;;;;20.04;56.91;100973.97;4885993;29;1142;-49
2021/09/05 03:38:13;;;;;;;;;;;;;;;20.12;58.03;100978.84;4870280;29;1155;-47
2021/09/05 03:41:05;;;;;;;;;;;;;;;20.33;58.52;100986.91;4877293;29;1158;-44
2021/09/05 03:43:49;;;;;;;;;;;;;;;20.78;57.61;100987.47;4885094;29;986;-47
2021/09/05 03:46:37;;;;;;;;;;;;;;;20.59;58.76;100990.16;4867074;29;1143;-45
2021/09/05 03:49:09;;;;;;;;;;;;;;;20.81;58.68;100983.31;4886360;29;813;-48
2021/09/05 03:51:37;;;;;;;;;;;;;;;20.96;58.43;100985.84;4883905;29;1907;-46
2021/09/05 03:54:03;;;;;;;;;;;;;;;21.26;57.42;100989.28;4884073;29;1142;-48
2021/09/05 03:56:30;;;;;;;;;;;;;;;21.39;57.20;100992.41;4899065;29;1193;-52
2021/09/05 03:59:02;;;;;;;;;;;;;;;21.56;56.69;100989.97;4892648;29;1428;-50
2021/09/05 04:01:29;;;;;;;;;;;;;;;20.82;57.06;100998.78;4883095;29;1230;-52
2021/09/05 04:04:08;;;;;;;;;;;;;;;20.13;55.10;100993.47;4884018;29;1348;-45
2021/09/05 04:06:33;;;;;;;;;;;;;;;19.58;51.99;100989.00;4885035;29;793;-45
2021/09/05 04:09:08;;;;;;;;;;;;;;;19.12;49.75;100995.66;4885490;29;793;-47
2021/09/05 04:11:34;;;;;;;;;;;;;;;18.60;48.54;101002.53;4884751;29;1987;-49
2021/09/05 04:13:59;;;;;;;;;;;;;;;18.49;47.54;100996.25;4884433;29;987;-47
2021/09/05 04:16:25;;;;;;;;;;;;;;;18.75;50.02;101004.41;4885059;29;1065;-45
2021/09/05 04:18:50;;;;;;;;;;;;;;;19.22;53.05;101002.22;4885242;29;818;-46
2021/09/05 04:21:15;;;;;;;;;;;;;;;19.54;54.87;101007.22;4884600;29;754;-44
2021/09/05 04:23:41;;;;;;;;;;;;;;;19.81;56.65;101017.81;4884833;29;742;-48
2021/09/05 04:26:06;;;;;;;;;;;;;;;20.05;57.44;101014.28;4884581;29;766;-45
2021/09/05 04:28:32;;;;;;;;;;;;;;;20.31;57.89;101017.59;4884462;29;975;-47
2021/09/05 04:30:57;;;;;;;;;;;;;;;20.50;58.44;101022.34;4884654;29;750;-48
2021/09/05 04:33:23;;;;;;;;;;;;;;;20.63;58.68;101021.63;4884514;29;1903;-47
2021/09/05 04:35:48;;;;;;;;;;;;;;;20.85;58.39;101021.09;4884153;29;789;-45
2021/09/05 04:38:13;;;;;;;;;;;;;;;21.11;57.97;101018.00;4884233;29;833;-44
2021/09/05 04:40:39;;;;;;;;;;;;;;;21.20;57.83;101018.94;4884639;29;845;-46
2021/09/05 04:43:04;;;;;;;;;;;;;;;21.37;57.27;101029.47;4883273;29;1154;-43
2021/09/05 04:45:30;;;;;;;;;;;;;;;21.20;57.24;101030.00;4884029;29;805;-45
2021/09/05 04:47:55;;;;;;;;;;;;;;;20.55;56.50;101032.50;4884731;29;741;-44
2021/09/05 04:50:21;;;;;;;;;;;;;;;19.99;54.35;101023.69;4884161;29;725;-45
2021/09/05 04:52:46;;;;;;;;;;;;;;;19.29;52.04;101033.06;4883699;29;1976;-47
2021/09/05 04:55:12;;;;;;;;;;;;;;;18.80;49.97;101035.50;4884126;29;820;-48
2021/09/05 04:57:37;;;;;;;;;;;;;;;18.88;47.21;101031.34;4884192;29;582;-46
2021/09/05 05:00:03;;;;;;;;;;;;;;;18.69;48.55;101039.41;4883063;29;971;-49
2021/09/05 05:02:29;;;;;;;;;;;;;;;19.06;51.56;101034.59;4883883;29;798;-47
2021/09/05 05:04:55;;;;;;;;;;;;;;;19.46;53.67;101039.03;4883668;29;785;-47
2021/09/05 05:07:20;;;;;;;;;;;;;;;19.61;55.77;101043.56;4883853;29;844;-48
2021/09/05 05:09:46;;;;;;;;;;;;;;;19.90;56.90;101042.84;4883939;29;797;-47
2021/09/05 05:12:12;;;;;;;;;;;;;;;20.17;57.36;101035.94;4883538;29;1911;-46
2021/09/05 05:14:37;;;;;;;;;;;;;;;20.24;58.17;101039.19;4883406;29;1030;-48
2021/09/05 05:17:03;;;;;;;;;;;;;;;20.49;58.05;101053.84;4883406;29;1117;-48
2021/09/05 05:19:29;;;;;;;;;;;;;;;20.74;57.84;101049.19;4882725;29;797;-47
2021/09/05 05:21:54;;;;;;;;;;;;;;;20.78;58.07;101051.03;4883730;29;790;-47
2021/09/05 05:24:20;;;;;;;;;;;;;;;20.95;58.18;101050.53;4883725;29;785;-47
2021/09/05 05:26:45;;;;;;;;;;;;;;;21.01;58.07;101051.31;4883712;29;841;-49
2021/09/05 05:29:11;;;;;;;;;;;;;;;21.15;57.75;101052.22;4882925;29;971;-49
2021/09/05 05:31:36;;;;;;;;;;;;;;;21.14;57.79;101056.09;4883577;29;1903;-46
2021/09/05 05:34:02;;;;;;;;;;;;;;;21.05;58.05;101052.34;4883364;29;794;-52
2021/09/05 05:36:27;;;;;;;;;;;;;;;20.50;56.20;101053.53;4883289;29;781;-51
2021/09/05 05:38:53;;;;;;;;;;;;;;;19.96;53.94;101051.88;4883345;29;855;-51
2021/09/05 05:41:19;;;;;;;;;;;;;;;19.41;51.84;101049.25;4883526;29;745;-48
2021/09/05 05:43:45;;;;;;;;;;;;;;;18.97;49.31;101054.47;4882488;29;947;-44
2021/09/05 05:46:11;;;;;;;;;;;;;;;18.57;48.07;101052.69;4883258;29;765;-48
2021/09/05 05:48:36;;;;;;;;;;;;;;;18.43;48.00;101050.50;4882590;29;813;-47
2021/09/05 05:51:02;;;;;;;;;;;;;;;18.69;50.44;101057.84;4881627;29;1093;-51
2021/09/05 05:53:28;;;;;;;;;;;;;;;19.00;53.72;101057.75;4881916;29;1989;-51
2021/09/05 05:55:54;;;;;;;;;;;;;;;19.29;55.65;101058.72;4883039;29;786;-49
2021/09/05 05:58:20;;;;;;;;;;;;;;;19.67;56.56;101058.19;4882634;29;986;-50
2021/09/05 06:00:47;;;;;;;;;;;;;;;19.89;57.34;101059.69;4897686;29;1181;-46
2021/09/05 06:03:12;;;;;;;;;;;;;;;20.09;58.09;101059.50;4882903;29;731;-45
2021/09/05 06:05:39;;;;;;;;;;;;;;;20.58;57.42;101071.44;4896991;29;1361;-45
2021/09/05 06:08:07;;;;;;;;;;;;;;;20.59;57.99;101066.72;4881493;29;809;-45
2021/09/05 06:10:39;;;;;;;;;;;;;;;20.52;58.60;101072.59;5154657;27;1186;-43
2021/09/05 06:13:04;;;;;;;;;;;;;;;20.81;58.42;101071.75;5154164;27;1178;-45
2021/09/05 06:15:30;;;;;;;;;;;;;;;20.86;58.43;101066.16;5135557;27;1035;-43
2021/09/05 06:17:55;;;;;;;;;;;;;;;21.01;58.15;101074.25;5134434;27;867;-44
2021/09/05 06:20:21;;;;;;;;;;;;;;;21.14;57.95;101071.84;5133514;27;755;-43
2021/09/05 06:22:46;;;;;;;;;;;;;;;21.08;58.09;101076.63;5133979;27;790;-45
2021/09/05 06:25:12;;;;;;;;;;;;;;;20.72;57.20;101071.59;5145129;27;652;-45
2021/09/05 06:27:37;;;;;;;;;;;;;;;20.24;55.03;101077.84;5153407;27;782;-45
2021/09/05 06:30:03;;;;;;;;;;;;;;;19.59;52.86;101078.09;5153491;27;1988;-48
2021/09/05 06:32:29;;;;;;;;;;;;;;;19.11;50.86;101082.25;5154407;27;748;-48
2021/09/05 06:34:54;;;;;;;;;;;;;;;18.77;49.39;101074.63;5153382;27;731;-46
2021/09/05 06:37:20;;;;;;;;;;;;;;;18.33;47.95;101086.31;5154527;27;770;-47
2021/09/05 06:39:45;;;;;;;;;;;;;;;18.57;48.41;101080.22;5154087;27;801;-47
2021/09/05 06:42:11;;;;;;;;;;;;;;;19.08;52.30;101082.81;5154090;27;798;-46
2021/09/05 06:44:36;;;;;;;;;;;;;;;19.49;54.77;101085.31;5142311;27;952;-45
2021/09/05 06:47:02;;;;;;;;;;;;;;;19.80;56.33;101078.81;5133088;28;966;-46
2021/09/05 06:49:28;;;;;;;;;;;;;;;20.00;57.17;101077.78;5133199;27;1905;-46
2021/09/05 06:51:53;;;;;;;;;;;;;;;20.18;57.82;101074.31;5133371;27;790;-45
2021/09/05 06:54:18;;;;;;;;;;;;;;;20.33;58.23;101075.28;5133205;27;743;-45
2021/09/05 06:56:44;;;;;;;;;;;;;;;20.30;59.01;101073.09;5133162;27;846;-45
2021/09/05 06:59:09;;;;;;;;;;;;;;;20.68;58.16;101070.53;5132790;27;960;-45
2021/09/05 07:01:35;;;;;;;;;;;;;;;20.78;58.31;101078.69;5145722;27;1211;-47
2021/09/05 07:04:00;;;;;;;;;;;;;;;20.79;58.49;101077.56;5153196;27;1334;-47
2021/09/05 07:06:26;;;;;;;;;;;;;;;21.14;57.81;101083.75;5153285;27;1487;-46
2021/09/05 07:08:51;;;;;;;;;;;;;;;21.35;57.26;101077.94;5153640;27;1917;-48
2021/09/05 07:11:17;;;;;;;;;;;;;;;21.30;57.25;101087.13;5153068;27;1235;-45
2021/09/05 07:13:42;;;;;;;;;;;;;;;20.87;56.39;101084.38;5150066;27;933;-48
2021/09/05 07:16:08;;;;;;;;;;;;;;;20.23;55.59;101086.41;5153229;27;1222;-45
2021/09/05 07:18:33;;;;;;;;;;;;;;;19.76;54.56;101089.56;5153351;27;755;-47
2021/09/05 07:20:59;;;;;;;;;;;;;;;19.62;52.65;101088.56;5145413;27;842;-46
2021/09/05 07:23:28;;;;;;;;;;;;;;;19.28;51.48;101089.34;5139686;27;723;-45
2021/09/05 07:25:54;;;;;;;;;;;;;;;19.15;50.74;101088.00;5139486;27;749;-46
2021/09/05 07:28:19;;;;;;;;;;;;;;;19.03;50.08;101087.50;5139297;27;1902;-46
2021/09/05 07:30:45;;;;;;;;;;;;;;;18.86;50.14;101090.56;5139956;27;751;-45
2021/09/05 07:33:10;;;;;;;;;;;;;;;18.91;51.13;101096.09;5139193;27;743;-44
2021/09/05 07:35:36;;;;;;;;;;;;;;;18.92;52.02;101098.56;5139163;27;775;-46
2021/09/05 07:38:01;;;;;;;;;;;;;;;19.15;52.69;101099.03;5139136;27;747;-46
2021/09/05 07:40:26;;;;;;;;;;;;;;;19.32;52.97;101099.50;5139280;27;782;-45
2021/09/05 07:42:52;;;;;;;;;;;;;;;19.40;53.91;101106.34;5139339;27;759;-46
2021/09/05 07:45:17;;;;;;;;;;;;;;;19.60;55.28;101093.53;5121452;27;1043;-45
2021/09/05 07:47:43;;;;;;;;;;;;;;;19.92;56.27;101097.75;5136818;27;811;-46
2021/09/05 07:50:09;;;;;;;;;;;;;;;20.15;56.85;101107.22;5138903;27;1913;-47
2021/09/05 07:52:34;;;;;;;;;;;;;;;20.30;57.72;101103.47;5139123;27;820;-46
2021/09/05 07:55:00;;;;;;;;;;;;;;;20.37;58.02;101100.38;5138777;27;778;-45
2021/09/05 07:57:25;;;;;;;;;;;;;;;20.52;58.25;101103.81;5138614;27;751;-44
2021/09/05 07:59:51;;;;;;;;;;;;;;;20.65;58.51;101106.97;5125242;27;948;-45
2021/09/05 08:02:16;;;;;;;;;;;;;;;20.76;58.46;101105.81;5119096;27;747;-44
2021/09/05 08:04:42;;;;;;;;;;;;;;;20.91;58.30;101101.19;5136953;27;1163;-47
2021/09/05 08:07:08;;;;;;;;;;;;;;;20.85;58.60;101104.00;5139104;27;789;-45
2021/09/05 08:09:33;;;;;;;;;;;;;;;21.14;57.31;101108.66;5138509;27;1909;-44
2021/09/05 08:11:59;;;;;;;;;;;;;;;20.53;56.77;101101.88;5138447;27;746;-46
2021/09/05 08:14:24;;;;;;;;;;;;;;;20.21;55.11;101100.53;5129021;27;960;-46
2021/09/05 08:16:49;;;;;;;;;;;;;;;19.85;53.63;101111.03;5117553;28;779;-46
2021/09/05 08:19:15;;;;;;;;;;;;;;;19.59;51.92;101111.22;5118043;28;803;-46
2021/09/05 08:21:40;;;;;;;;;;;;;;;19.21;51.50;101108.09;5118035;28;802;-47
2021/09/05 08:24:06;;;;;;;;;;;;;;;19.00;50.67;101110.97;5117758;28;794;-46
2021/09/05 08:26:32;;;;;;;;;;;;;;;18.89;50.55;101110.16;5117911;28;833;-46
2021/09/05 08:28:57;;;;;;;;;;;;;;;19.07;50.86;101105.13;5117639;27;1913;-47
2021/09/05 08:31:22;;;;;;;;;;;;;;;19.17;51.80;101109.75;5117813;28;792;-47
2021/09/05 08:33:48;;;;;;;;;;;;;;;19.17;52.63;101101.50;5116565;28;746;-46
2021/09/05 08:36:13;;;;;;;;;;;;;;;19.25;53.50;101104.50;5117715;28;803;-51
2021/09/05 08:38:39;;;;;;;;;;;;;;;19.66;54.96;101106.19;5117700;28;848;-48
2021/09/05 08:41:04;;;;;;;;;;;;;;;19.90;56.61;101099.97;5117252;28;787;-47
2021/09/05 08:43:30;;;;;;;;;;;;;;;20.20;57.08;101096.09;5117280;27;945;-46
2021/09/05 08:45:55;;;;;;;;;;;;;;;20.43;57.56;101100.03;5117728;28;773;-46
2021/09/05 08:48:21;;;;;;;;;;;;;;;20.71;57.52;101092.03;5117295;28;1914;-50
2021/09/05 08:50:47;;;;;;;;;;;;;;;20.85;57.71;101087.44;5117338;28;842;-49
2021/09/05 08:53:12;;;;;;;;;;;;;;;20.91;57.98;101082.66;5117586;28;775;-45
2021/09/05 08:55:38;;;;;;;;;;;;;;;21.19;57.36;101086.44;5117154;28;805;-43
2021/09/05 08:58:03;;;;;;;;;;;;;;;21.11;57.78;101089.91;5117255;28;747;-44
2021/09/05 09:00:29;;;;;;;;;;;;;;;21.11;57.63;101084.38;5117164;27;965;-44
2021/09/05 09:02:55;;;;;;;;;;;;;;;20.83;56.28;101088.84;5117039;28;752;-46
2021/09/05 09:05:32;;;;;;;;;;;;;;;20.03;54.79;101088.25;5117096;28;782;-44
2021/09/05 09:07:59;;;;;;;;;;;;;;;19.68;51.31;101084.63;5116945;28;819;-44
2021/09/05 09:10:24;;;;;;;;;;;;;;;19.12;49.34;101086.63;5116448;28;1979;-44
2021/09/05 09:12:50;;;;;;;;;;;;;;;18.77;47.65;101096.66;5107586;28;811;-45
2021/09/05 09:15:18;;;;;;;;;;;;;;;18.38;47.27;101083.53;5117011;27;964;-43
2021/09/05 09:17:44;;;;;;;;;;;;;;;18.80;50.00;101078.75;5133287;27;787;-46
2021/09/05 09:20:09;;;;;;;;;;;;;;;19.27;53.28;101095.94;5136036;27;895;-43
2021/09/05 09:22:35;;;;;;;;;;;;;;;19.72;54.99;101082.97;5137136;27;818;-43
2021/09/05 09:25:00;;;;;;;;;;;;;;;19.95;56.53;101086.13;5136753;27;775;-47
2021/09/05 09:27:26;;;;;;;;;;;;;;;19.99;57.52;101081.66;5137592;27;767;-44
2021/09/05 09:29:55;;;;;;;;;;;;;;;20.17;58.02;101078.22;5123137;27;1925;-45
2021/09/05 09:32:23;;;;;;;;;;;;;;;20.50;57.92;101085.88;5116398;27;829;-45
2021/09/05 09:34:50;;;;;;;;;;;;;;;21.10;56.69;101082.72;5135773;27;1143;-43
2021/09/05 09:37:19;;;;;;;;;;;;;;;21.00;57.13;101082.84;5136934;27;731;-45
2021/09/05 09:39:45;;;;;;;;;;;;;;;21.16;56.92;101084.28;5135215;27;858;-47
2021/09/05 09:42:30;;;;;;;;;;;;;;;21.08;57.33;101079.41;5137988;27;769;-43
2021/09/05 09:44:55;;;;;;;;;;;;;;;21.15;57.40;101073.50;5124206;27;999;-44
2021/09/05 09:47:21;;;;;;;;;;;;;;;21.28;56.98;101071.94;5136441;27;743;-46
2021/09/05 09:49:47;;;;;;;;;;;;;;;20.99;56.55;101073.72;5135269;27;1909;-45
2021/09/05 09:52:13;;;;;;;;;;;;;;;20.43;55.24;101074.38;5136634;27;980;-46
2021/09/05 09:54:39;;;;;;;;;;;;;;;19.89;53.66;101074.28;5134950;27;814;-45
2021/09/05 09:57:05;;;;;;;;;;;;;;;19.52;50.98;101063.78;5135623;27;763;-46
2021/09/05 09:59:30;;;;;;;;;;;;;;;19.32;49.18;101068.31;5133247;27;1015;-44
2021/09/05 10:01:56;;;;;;;;;;;;;;;18.93;47.85;101067.16;5136534;27;862;-45
2021/09/05 10:04:21;;;;;;;;;;;;;;;18.58;47.52;101062.56;5137122;27;830;-45
2021/09/05 10:06:47;;;;;;;;;;;;;;;18.53;48.19;101068.09;5136480;27;759;-43
2021/09/05 10:09:13;;;;;;;;;;;;;;;19.04;51.90;101067.94;5136485;28;1975;-46
2021/09/05 10:11:39;;;;;;;;;;;;;;;19.66;55.21;101068.38;5135253;28;882;-44
2021/09/05 10:14:05;;;;;;;;;;;;;;;20.12;56.66;101072.72;5134135;28;1075;-45
2021/09/05 10:16:30;;;;;;;;;;;;;;;20.28;57.77;101067.88;5136787;27;767;-45
2021/09/05 10:19:05;;;;;;;;;;;;;;;20.62;57.63;101071.66;5135117;28;945;-44
2021/09/05 10:21:30;;;;;;;;;;;;;;;20.93;57.43;101068.53;5135387;28;822;-43
2021/09/05 10:23:56;;;;;;;;;;;;;;;21.16;57.21;101061.34;5135237;28;747;-44
2021/09/05 10:26:22;;;;;;;;;;;;;;;21.15;57.33;101063.28;5136233;27;750;-44
2021/09/05 10:28:48;;;;;;;;;;;;;;;21.10;57.60;101068.88;5133767;28;1986;-44
2021/09/05 10:31:27;;;;;;;;;;;;;;;20.78;57.55;101064.84;5136265;27;811;-46
2021/09/05 10:33:53;;;;;;;;;;;;;;;20.40;54.99;101053.66;5136575;27;786;-44
2021/09/05 10:36:19;;;;;;;;;;;;;;;19.87;52.88;101046.19;5136705;27;790;-43
2021/09/05 10:38:44;;;;;;;;;;;;;;;19.48;50.73;101047.81;5135733;27;811;-47
2021/09/05 10:41:13;;;;;;;;;;;;;;;19.03;49.55;101055.28;5136614;27;798;-44
2021/09/05 10:43:51;;;;;;;;;;;;;;;18.86;48.51;101052.00;5134085;28;966;-43
2021/09/05 10:46:30;;;;;;;;;;;;;;;18.94;49.26;101040.44;5136100;27;758;-43
2021/09/05 10:48:56;;;;;;;;;;;;;;;19.28;52.11;101051.53;5136038;27;1917;-46
2021/09/05 10:51:25;;;;;;;;;;;;;;;19.60;54.39;101043.88;5136195;27;743;-44
2021/09/05 10:53:52;;;;;;;;;;;;;;;20.06;55.87;101043.50;5135926;27;798;-45
2021/09/05 10:56:21;;;;;;;;;;;;;;;20.40;56.48;101059.19;5138202;27;766;-45
2021/09/05 10:58:52;;;;;;;;;;;;;;;20.85;56.52;101064.50;5135348;27;964;-44
2021/09/05 11:01:20;;;;;;;;;;;;;;;20.83;57.08;101063.97;5119102;28;799;-43
2021/09/05 11:04:04;;;;;;;;;;;;;;;20.81;57.60;101067.03;5119487;28;814;-46
2021/09/05 11:06:45;;;;;;;;;;;;;;;20.88;57.62;101068.63;5119648;28;811;-43
2021/09/05 11:09:25;;;;;;;;;;;;;;;21.33;56.46;101064.41;5118622;28;1960;-45
2021/09/05 11:11:55;;;;;;;;;;;;;;;20.80;57.21;101068.16;5119331;27;704;-45
2021/09/05 11:17:09;;;;;;;;;;;;;;;19.82;53.33;101057.25;5137489;27;803;-45
2021/09/05 11:19:44;;;;;;;;;;;;;;;19.36;51.15;101063.06;5139783;27;731;-45
2021/09/05 11:22:10;;;;;;;;;;;;;;;19.32;48.83;101069.16;5139666;27;834;-47
2021/09/05 11:24:39;;;;;;;;;;;;;;;18.88;47.95;101069.13;5139378;27;816;-44
2021/09/05 11:27:06;;;;;;;;;;;;;;;18.97;48.55;101067.41;5139676;27;771;-46
2021/09/05 11:29:33;;;;;;;;;;;;;;;19.18;50.34;101078.34;5128011;27;1993;-47
2021/09/05 11:32:05;;;;;;;;;;;;;;;19.42;52.79;101079.31;5118463;28;782;-49
2021/09/05 11:34:30;;;;;;;;;;;;;;;19.54;55.47;101072.63;5119062;28;776;-44
2021/09/05 11:36:57;;;;;;;;;;;;;;;20.04;56.00;101070.59;5118993;28;755;-46
2021/09/05 11:39:22;;;;;;;;;;;;;;;20.35;56.61;101073.06;5116851;28;923;-44
2021/09/05 11:41:53;;;;;;;;;;;;;;;20.34;57.47;101077.75;5117710;27;834;-47
2021/09/05 11:44:33;;;;;;;;;;;;;;;20.39;58.14;101078.81;5126499;27;934;-45
2021/09/05 11:47:08;;;;;;;;;;;;;;;20.81;57.42;101075.31;5138995;27;858;-46
2021/09/05 11:49:35;;;;;;;;;;;;;;;20.95;57.30;101080.94;5126936;27;1980;-47
2021/09/05 11:52:02;;;;;;;;;;;;;;;21.13;56.87;101082.09;5119078;27;850;-45
2021/09/05 11:54:28;;;;;;;;;;;;;;;21.19;56.76;101083.66;5137333;27;817;-45
2021/09/05 11:56:54;;;;;;;;;;;;;;;21.02;56.32;101075.06;5138927;27;767;-44
2021/09/05 11:59:20;;;;;;;;;;;;;;;20.26;55.76;101077.53;5129330;27;952;-45
2021/09/05 12:01:50;;;;;;;;;;;;;;;19.88;54.50;101069.06;5118099;28;791;-48
2021/09/05 12:04:36;;;;;;;;;;;;;;;19.42;52.90;101064.69;5116271;28;1224;-45
2021/09/05 12:07:02;;;;;;;;;;;;;;;19.21;51.45;101067.59;5116720;28;974;-44
2021/09/05 12:09:29;;;;;;;;;;;;;;;19.07;50.55;101070.13;5116112;28;1976;-44
2021/09/05 12:11:55;;;;;;;;;;;;;;;19.07;50.29;101059.13;5117993;28;762;-49
2021/09/05 12:14:35;;;;;;;;;;;;;;;19.21;51.48;101064.81;5117998;27;1028;-45
2021/09/05 12:17:16;;;;;;;;;;;;;;;19.37;53.70;101062.78;5118155;28;842;-43
2021/09/05 12:19:53;;;;;;;;;;;;;;;19.92;55.05;101070.13;5117995;28;790;-45
2021/09/05 12:22:18;;;;;;;;;;;;;;;20.08;56.54;101074.41;5117502;28;830;-43
2021/09/05 12:24:53;;;;;;;;;;;;;;;20.40;57.16;101086.81;5118007;28;747;-44
2021/09/05 12:27:18;;;;;;;;;;;;;;;20.50;57.82;101081.16;5117893;28;738;-45
2021/09/05 12:29:45;;;;;;;;;;;;;;;20.55;58.46;101083.03;5117331;27;1910;-46
2021/09/05 12:32:13;;;;;;;;;;;;;;;20.70;58.44;101084.03;5118171;28;803;-47
2021/09/05 12:34:39;;;;;;;;;;;;;;;20.91;58.21;101079.09;5117044;28;739;-44
2021/09/05 12:37:16;;;;;;;;;;;;;;;21.22;57.31;101079.50;5117727;28;803;-44
2021/09/05 12:39:42;;;;;;;;;;;;;;;20.73;58.04;101073.22;5117432;28;826;-43
2021/09/05 12:42:11;;;;;;;;;;;;;;;20.46;55.41;101076.53;5116163;28;808;-44
2021/09/05 12:44:43;;;;;;;;;;;;;;;19.93;53.41;101074.56;5117032;27;977;-43
2021/09/05 12:47:09;;;;;;;;;;;;;;;19.60;50.92;101075.06;5117469;28;790;-44
2021/09/05 12:49:39;;;;;;;;;;;;;;;19.36;49.46;101069.41;5116198;28;1980;-45
2021/09/05 12:52:05;;;;;;;;;;;;;;;18.85;48.62;101070.47;5117041;28;810;-44
2021/09/05 12:54:38;;;;;;;;;;;;;;;18.67;49.62;101071.91;5117373;28;818;-45
2021/09/05 12:57:04;;;;;;;;;;;;;;;19.30;52.63;101076.88;5125900;27;819;-43
2021/09/05 12:59:29;;;;;;;;;;;;;;;19.81;54.97;101077.66;5126382;27;1015;-43
2021/09/05 13:01:56;;;;;;;;;;;;;;;20.13;56.04;101071.63;5126989;27;775;-44
2021/09/05 13:04:22;;;;;;;;;;;;;;;20.43;56.61;101079.88;5138180;27;767;-45
2021/09/05 13:06:48;;;;;;;;;;;;;;;20.40;57.68;101075.75;5137426;27;809;-46
2021/09/05 13:09:22;;;;;;;;;;;;;;;20.73;57.37;101078.72;5136152;27;1913;-45
2021/09/05 13:11:48;;;;;;;;;;;;;;;20.98;56.92;101074.00;5136032;27;877;-45
2021/09/05 13:14:17;;;;;;;;;;;;;;;20.92;57.86;101083.50;5128310;27;944;-45